Steele, Missouri
Current Conditions -  °F | °C
As of 10:53 PM on Wednesday 26 Nov 2014 (Local Time) from KHKA Reporting Station
Scattered Clouds Scattered Clouds  
Wind Chill: 44°   Ceiling: Unl
Heat Index: 44°   Visibility: 10mi
Dew Point: 34°   Wind: 0mph
Humidity: 68%   Direction: NA
Pressure: 30.17"   Gusts: NA
Location:  36.08°N, 89.83°W
Report Text: KHKA 270453Z AUTO 00000KT 10SM FEW050 SCT075 07/01 A3017 RMK AO2 SLP216 T00670011
Loading
Personal Weather Stations






























Interactive Weather Map New forecast layout! Learn more

10-Day Weather Forecast

Advertisements
Track Severe Weather on mobile